createdAt,value
2023-09-15T00:02:13.094Z,14.57
2023-09-15T00:04:40.049Z,14.50
2023-09-15T00:07:07.040Z,14.46
2023-09-15T00:09:34.023Z,14.44
2023-09-15T00:12:01.055Z,14.42
2023-09-15T00:14:27.922Z,14.40
2023-09-15T00:16:55.187Z,14.39
2023-09-15T00:19:23.568Z,14.39
2023-09-15T00:21:50.532Z,14.40
2023-09-15T00:24:17.840Z,14.40
2023-09-15T00:26:45.041Z,14.38
2023-09-15T00:29:13.339Z,14.34
2023-09-15T00:31:41.487Z,14.32
2023-09-15T00:34:08.715Z,14.32
2023-09-15T00:36:36.489Z,14.32
2023-09-15T00:39:04.051Z,14.34
2023-09-15T00:41:31.578Z,14.38
2023-09-15T00:43:59.215Z,14.42
2023-09-15T00:46:26.545Z,14.44
2023-09-15T00:48:56.455Z,14.45
2023-09-15T00:51:24.094Z,14.45
2023-09-15T00:53:51.430Z,14.44
2023-09-15T00:56:19.340Z,14.41
2023-09-15T00:58:49.089Z,14.39
2023-09-15T01:01:17.963Z,14.36
2023-09-15T01:03:47.496Z,14.36
2023-09-15T01:06:16.666Z,14.37
2023-09-15T01:08:43.701Z,14.35
2023-09-15T01:11:11.236Z,14.33
2023-09-15T01:13:38.621Z,14.27
2023-09-15T01:16:17.166Z,14.20
2023-09-15T01:18:51.662Z,14.15
2023-09-15T01:21:38.283Z,14.11
2023-09-15T01:24:06.232Z,14.09
2023-09-15T01:26:48.104Z,14.05
2023-09-15T01:29:31.533Z,13.99
2023-09-15T01:32:02.016Z,13.88
2023-09-15T01:34:29.093Z,13.80
2023-09-15T01:36:56.016Z,13.73
2023-09-15T01:39:22.907Z,13.69
2023-09-15T01:41:49.725Z,13.62
2023-09-15T01:44:16.562Z,13.54
2023-09-15T01:46:43.420Z,13.44
2023-09-15T01:49:11.587Z,13.30
2023-09-15T01:51:39.748Z,13.17
2023-09-15T01:54:08.316Z,13.07
2023-09-15T01:56:35.194Z,13.01
2023-09-15T01:59:02.207Z,12.96
2023-09-15T02:01:29.292Z,12.92
2023-09-15T02:03:57.707Z,12.85
2023-09-15T02:06:24.694Z,12.78
2023-09-15T02:08:52.728Z,12.73
2023-09-15T02:11:20.918Z,12.65
2023-09-15T02:13:48.030Z,12.58
2023-09-15T02:16:14.976Z,12.53
2023-09-15T02:18:42.088Z,12.51
2023-09-15T02:21:08.961Z,12.49
2023-09-15T02:23:36.212Z,12.48
2023-09-15T02:26:04.775Z,12.44
2023-09-15T02:28:33.285Z,12.38
2023-09-15T02:31:03.293Z,12.27
2023-09-15T02:33:30.334Z,12.23
2023-09-15T02:35:57.321Z,12.19
2023-09-15T02:38:24.981Z,12.16
2023-09-15T02:40:51.884Z,12.13
2023-09-15T02:43:18.787Z,12.11
2023-09-15T02:45:45.719Z,12.07
2023-09-15T02:48:13.892Z,12.03
2023-09-15T02:50:43.062Z,11.97
2023-09-15T02:53:11.267Z,11.94
2023-09-15T02:55:39.517Z,11.92
2023-09-15T02:58:06.986Z,11.92
2023-09-15T03:00:34.501Z,11.94
2023-09-15T03:03:01.724Z,11.95
2023-09-15T03:05:28.916Z,11.96
2023-09-15T03:07:56.407Z,11.98
2023-09-15T03:10:23.454Z,11.96
2023-09-15T03:13:07.207Z,11.95
2023-09-15T03:15:36.772Z,11.97
2023-09-15T03:18:06.291Z,12.00
2023-09-15T03:20:33.390Z,12.06
2023-09-15T03:23:01.051Z,12.15
2023-09-15T03:25:28.105Z,12.25
2023-09-15T03:27:55.202Z,12.35
2023-09-15T03:30:22.659Z,12.42
2023-09-15T03:32:50.327Z,12.49
2023-09-15T03:35:17.392Z,12.52
2023-09-15T03:37:44.290Z,12.57
2023-09-15T03:40:13.050Z,12.62
2023-09-15T03:42:40.510Z,12.70
2023-09-15T03:45:09.416Z,12.78
2023-09-15T03:47:52.366Z,12.87
2023-09-15T03:50:35.258Z,12.97
2023-09-15T03:53:02.180Z,13.07
2023-09-15T03:55:29.138Z,13.16
2023-09-15T03:57:56.183Z,13.21
2023-09-15T04:00:23.384Z,13.27
2023-09-15T04:02:50.417Z,13.30
2023-09-15T04:05:17.377Z,13.37
2023-09-15T04:07:59.724Z,13.44
2023-09-15T04:10:26.916Z,13.49
2023-09-15T04:12:53.837Z,13.53
2023-09-15T04:15:20.720Z,13.55
2023-09-15T04:18:02.776Z,13.53
2023-09-15T04:20:44.662Z,13.52
2023-09-15T04:23:13.093Z,13.49
2023-09-15T04:25:56.047Z,13.49
2023-09-15T04:28:23.000Z,13.49
2023-09-15T04:30:50.257Z,13.50
2023-09-15T04:33:17.286Z,13.51
2023-09-15T04:35:44.576Z,13.50
2023-09-15T04:38:11.485Z,13.50
2023-09-15T04:40:38.920Z,13.48
2023-09-15T04:43:05.972Z,13.47
2023-09-15T04:45:33.566Z,13.47
2023-09-15T04:48:01.853Z,13.48
2023-09-15T04:50:29.105Z,13.47
2023-09-15T04:52:56.995Z,13.47
2023-09-15T04:55:24.174Z,13.46
2023-09-15T04:57:51.264Z,13.45
2023-09-15T05:00:24.895Z,13.45
2023-09-15T05:02:59.776Z,13.46
2023-09-15T05:05:28.114Z,13.50
2023-09-15T05:07:55.416Z,13.56
2023-09-15T05:10:23.604Z,13.61
2023-09-15T05:12:50.913Z,13.65
2023-09-15T05:15:20.526Z,13.74
2023-09-15T05:17:47.495Z,13.81
2023-09-15T05:20:15.580Z,13.90
2023-09-15T05:22:42.507Z,14.01
2023-09-15T05:25:10.398Z,14.12
2023-09-15T05:27:37.724Z,14.24
2023-09-15T05:30:05.928Z,14.37
2023-09-15T05:32:35.174Z,14.50
2023-09-15T05:35:02.349Z,14.60
2023-09-15T05:37:29.360Z,14.71
2023-09-15T05:39:56.254Z,14.84
2023-09-15T05:42:23.826Z,14.97
2023-09-15T05:44:50.650Z,15.11
2023-09-15T05:47:17.533Z,15.23
2023-09-15T05:49:44.421Z,15.38
2023-09-15T05:52:11.655Z,15.54
2023-09-15T05:54:38.575Z,15.71
2023-09-15T05:57:06.686Z,15.86
2023-09-15T05:59:33.592Z,16.02
2023-09-15T06:02:00.532Z,16.16
2023-09-15T06:04:27.768Z,16.31
2023-09-15T06:06:55.164Z,16.46
2023-09-15T06:09:22.133Z,16.56
2023-09-15T06:11:48.966Z,16.64
2023-09-15T06:14:16.893Z,16.72
2023-09-15T06:16:43.812Z,16.79
2023-09-15T06:19:10.930Z,16.87
2023-09-15T06:21:38.026Z,16.95
2023-09-15T06:24:06.197Z,17.04
2023-09-15T06:26:34.970Z,17.10
2023-09-15T06:29:01.861Z,17.10
2023-09-15T06:31:28.896Z,17.12
2023-09-15T06:33:55.984Z,17.19
2023-09-15T06:36:23.120Z,17.26
2023-09-15T06:38:51.295Z,17.34
2023-09-15T06:41:18.167Z,17.45
2023-09-15T06:43:45.124Z,17.63
2023-09-15T06:46:12.391Z,17.86
2023-09-15T06:48:39.363Z,18.10
2023-09-15T06:51:06.235Z,18.38
2023-09-15T06:53:33.075Z,18.68
2023-09-15T06:55:59.944Z,18.97
2023-09-15T06:58:28.011Z,19.23
2023-09-15T07:00:58.751Z,19.48
2023-09-15T07:03:27.840Z,19.67
2023-09-15T07:05:54.892Z,19.90
2023-09-15T07:08:21.761Z,20.09
2023-09-15T07:10:52.589Z,20.15
2023-09-15T07:13:20.179Z,20.20
2023-09-15T07:15:48.608Z,20.28
2023-09-15T07:18:15.662Z,20.37
2023-09-15T07:20:43.462Z,20.60
2023-09-15T07:23:11.177Z,20.83
2023-09-15T07:25:38.500Z,20.98
2023-09-15T07:28:06.452Z,21.10
2023-09-15T07:30:33.541Z,21.20
2023-09-15T07:33:02.574Z,21.50
2023-09-15T07:35:29.965Z,21.68
2023-09-15T07:37:57.129Z,21.84
2023-09-15T07:40:25.472Z,22.12
2023-09-15T07:42:52.815Z,22.39
2023-09-15T07:45:19.935Z,22.69
2023-09-15T07:47:47.441Z,23.07
2023-09-15T07:50:18.053Z,23.58
2023-09-15T07:52:46.779Z,23.98
2023-09-15T07:55:14.274Z,24.05
2023-09-15T07:57:41.474Z,24.21
2023-09-15T08:00:12.215Z,24.55
2023-09-15T08:02:41.452Z,25.05
2023-09-15T08:05:09.266Z,25.39
2023-09-15T08:07:36.328Z,25.69
2023-09-15T08:10:05.130Z,26.05
2023-09-15T08:12:32.372Z,26.42
2023-09-15T08:14:59.347Z,27.02
2023-09-15T08:17:33.649Z,27.65
2023-09-15T08:20:02.280Z,28.34
2023-09-15T08:22:29.645Z,28.78
2023-09-15T08:24:56.805Z,29.01
2023-09-15T08:27:23.764Z,29.09
2023-09-15T08:29:50.756Z,29.13
2023-09-15T08:32:18.289Z,29.38
2023-09-15T08:34:45.218Z,29.74
2023-09-15T08:37:14.251Z,29.89
2023-09-15T08:39:41.273Z,29.88
2023-09-15T08:42:22.274Z,29.83
2023-09-15T08:44:50.205Z,29.66
2023-09-15T08:47:19.497Z,29.56
2023-09-15T08:49:47.228Z,29.48
2023-09-15T08:52:17.891Z,29.48
2023-09-15T08:54:46.701Z,29.66
2023-09-15T08:57:15.707Z,29.90
2023-09-15T08:59:42.798Z,29.95
2023-09-15T09:02:13.330Z,30.10
2023-09-15T09:04:40.516Z,29.94
2023-09-15T09:07:08.588Z,29.45
2023-09-15T09:09:36.037Z,29.05
2023-09-15T09:12:03.091Z,28.67
2023-09-15T09:14:29.935Z,28.25
2023-09-15T09:16:57.722Z,27.95
2023-09-15T09:19:36.110Z,27.84
2023-09-15T09:22:03.600Z,27.75
2023-09-15T09:24:30.544Z,27.77
2023-09-15T09:26:57.700Z,27.89
2023-09-15T09:29:29.076Z,27.92
2023-09-15T09:31:56.658Z,27.92
2023-09-15T09:34:38.874Z,27.89
2023-09-15T09:37:10.867Z,27.97
2023-09-15T09:39:38.341Z,27.94
2023-09-15T09:42:06.296Z,27.77
2023-09-15T09:44:37.635Z,27.53
2023-09-15T09:47:09.263Z,27.32
2023-09-15T09:49:37.544Z,27.15
2023-09-15T09:52:05.403Z,27.04
2023-09-15T09:54:35.532Z,26.89
2023-09-15T09:57:04.166Z,26.81
2023-09-15T09:59:31.216Z,26.75
2023-09-15T10:01:58.112Z,26.84
2023-09-15T10:04:25.078Z,26.86
2023-09-15T10:06:53.015Z,26.76
2023-09-15T10:09:20.277Z,26.64
2023-09-15T10:11:48.132Z,26.55
2023-09-15T10:14:15.345Z,26.52
2023-09-15T10:16:42.319Z,26.44
2023-09-15T10:19:10.800Z,26.30
2023-09-15T10:21:39.212Z,26.22
2023-09-15T10:24:08.684Z,26.23
2023-09-15T10:26:36.444Z,26.30
2023-09-15T10:29:05.488Z,26.35
2023-09-15T10:31:35.473Z,26.33
2023-09-15T10:34:03.730Z,26.24
2023-09-15T10:36:30.709Z,26.30
2023-09-15T10:38:58.830Z,26.45
2023-09-15T10:41:29.085Z,26.56
2023-09-15T10:43:56.657Z,26.57
2023-09-15T10:46:38.631Z,26.54
2023-09-15T10:49:21.753Z,26.60
2023-09-15T10:52:04.319Z,26.59
2023-09-15T10:54:33.165Z,26.40
2023-09-15T10:57:01.230Z,26.26
2023-09-15T10:59:29.009Z,26.25
2023-09-15T11:01:56.884Z,26.29
2023-09-15T11:04:27.122Z,26.31
2023-09-15T11:06:55.197Z,26.41
2023-09-15T11:09:25.281Z,26.45
2023-09-15T11:11:53.515Z,26.29
2023-09-15T11:14:22.249Z,26.06
2023-09-15T11:16:51.575Z,25.85
2023-09-15T11:19:20.017Z,25.69
2023-09-15T11:21:48.227Z,25.55
2023-09-15T11:24:16.483Z,25.43
2023-09-15T11:26:47.783Z,25.41
2023-09-15T11:29:15.846Z,25.50
2023-09-15T11:31:45.297Z,25.53
2023-09-15T11:34:17.303Z,25.59
2023-09-15T11:36:45.063Z,25.65
2023-09-15T11:39:13.071Z,25.78
2023-09-15T11:41:41.566Z,25.93
2023-09-15T11:44:10.029Z,26.11
2023-09-15T11:46:45.221Z,26.32
2023-09-15T11:49:13.173Z,26.61
2023-09-15T11:51:40.838Z,26.72
2023-09-15T11:54:07.995Z,26.57
2023-09-15T11:56:35.439Z,26.37
2023-09-15T11:59:02.935Z,26.20
2023-09-15T12:01:30.990Z,25.98
2023-09-15T12:03:58.726Z,25.83
2023-09-15T12:06:27.437Z,25.97
2023-09-15T12:08:55.362Z,26.23
2023-09-15T12:11:22.619Z,26.43
2023-09-15T12:13:53.307Z,26.63
2023-09-15T12:16:29.188Z,26.76
2023-09-15T12:18:57.140Z,27.18
2023-09-15T12:21:28.610Z,27.53
2023-09-15T12:24:07.853Z,27.93
2023-09-15T12:26:34.848Z,28.38
2023-09-15T12:29:02.058Z,28.85
2023-09-15T12:31:29.531Z,29.38
2023-09-15T12:33:57.392Z,29.87
2023-09-15T12:36:25.202Z,30.45
2023-09-15T12:38:52.397Z,31.10
2023-09-15T12:41:20.255Z,31.78
2023-09-15T12:43:47.481Z,32.19
2023-09-15T12:46:15.624Z,32.26
2023-09-15T12:48:42.770Z,32.42
2023-09-15T12:51:09.800Z,32.49
2023-09-15T12:53:36.787Z,32.07
2023-09-15T12:56:03.909Z,31.47
2023-09-15T12:58:30.966Z,30.85
2023-09-15T13:00:58.016Z,30.65
2023-09-15T13:03:25.769Z,30.92
2023-09-15T13:05:53.626Z,31.46
2023-09-15T13:08:20.634Z,31.96
2023-09-15T13:10:47.542Z,32.54
2023-09-15T13:13:16.091Z,32.84
2023-09-15T13:15:43.747Z,32.62
2023-09-15T13:18:11.204Z,32.20
2023-09-15T13:20:38.168Z,32.12
2023-09-15T13:23:05.073Z,32.50
2023-09-15T13:25:32.088Z,32.94
2023-09-15T13:27:59.179Z,33.42
2023-09-15T13:30:26.796Z,33.81
2023-09-15T13:32:53.879Z,33.70
2023-09-15T13:35:21.120Z,33.37
2023-09-15T13:37:48.126Z,33.16
2023-09-15T13:40:15.191Z,33.14
2023-09-15T13:42:42.187Z,33.39
2023-09-15T13:45:14.304Z,33.45
2023-09-15T13:47:41.425Z,32.94
2023-09-15T13:50:08.607Z,32.13
2023-09-15T13:52:35.553Z,31.35
2023-09-15T13:55:03.408Z,30.87
2023-09-15T13:57:30.796Z,31.02
2023-09-15T13:59:58.193Z,31.19
2023-09-15T14:02:27.249Z,31.34
2023-09-15T14:04:57.358Z,31.59
2023-09-15T14:07:25.188Z,31.84
2023-09-15T14:09:52.410Z,32.01
2023-09-15T14:12:20.171Z,32.30
2023-09-15T14:14:47.178Z,32.67
2023-09-15T14:17:14.221Z,32.95
2023-09-15T14:19:41.706Z,33.03
2023-09-15T14:22:08.676Z,32.85
2023-09-15T14:24:37.256Z,32.29
2023-09-15T14:27:04.748Z,31.64
2023-09-15T14:29:33.235Z,30.97
2023-09-15T14:32:01.595Z,30.25
2023-09-15T14:34:28.864Z,29.62
2023-09-15T14:36:59.330Z,29.22
2023-09-15T14:39:28.556Z,29.33
2023-09-15T14:41:56.060Z,29.52
2023-09-15T14:44:23.384Z,29.63
2023-09-15T14:46:51.693Z,29.34
2023-09-15T14:49:19.051Z,28.92
2023-09-15T14:51:46.253Z,28.59
2023-09-15T14:54:13.560Z,28.29
2023-09-15T14:56:41.168Z,27.99
2023-09-15T14:59:10.817Z,27.67
2023-09-15T15:01:39.439Z,27.35
2023-09-15T15:04:06.420Z,27.03
2023-09-15T15:06:33.436Z,26.66
2023-09-15T15:09:00.851Z,26.31
2023-09-15T15:11:28.029Z,25.95
2023-09-15T15:13:54.929Z,25.59
2023-09-15T15:16:22.234Z,25.32
2023-09-15T15:18:51.831Z,25.04
2023-09-15T15:21:22.707Z,24.80
2023-09-15T15:23:50.875Z,24.52
2023-09-15T15:26:19.051Z,24.22
2023-09-15T15:28:46.975Z,23.91
2023-09-15T15:31:16.673Z,23.64
2023-09-15T15:34:09.996Z,23.38
2023-09-15T15:37:05.955Z,23.15
2023-09-15T15:39:53.809Z,22.95
2023-09-15T15:42:27.892Z,22.74
2023-09-15T15:44:57.059Z,22.58
2023-09-15T15:47:24.111Z,22.46
2023-09-15T15:49:53.198Z,22.32
2023-09-15T15:52:26.791Z,22.20
2023-09-15T15:54:56.157Z,22.10
2023-09-15T15:57:23.179Z,22.00
2023-09-15T15:59:51.083Z,21.90
2023-09-15T16:02:17.963Z,21.79
2023-09-15T16:04:46.305Z,21.69
2023-09-15T16:07:13.171Z,21.58
2023-09-15T16:09:40.046Z,21.46
2023-09-15T16:12:07.321Z,21.35
2023-09-15T16:14:36.122Z,21.23
2023-09-15T16:17:02.963Z,21.11
2023-09-15T16:19:29.763Z,21.00
2023-09-15T16:21:56.542Z,20.87
2023-09-15T16:24:23.497Z,20.75
2023-09-15T16:26:50.542Z,20.63
2023-09-15T16:29:17.366Z,20.50
2023-09-15T16:31:44.334Z,20.39
2023-09-15T16:34:11.194Z,20.28
2023-09-15T16:36:38.157Z,20.15
2023-09-15T16:39:05.308Z,20.04
2023-09-15T16:41:32.328Z,19.91
2023-09-15T16:43:59.524Z,19.79
2023-09-15T16:46:26.465Z,19.64
2023-09-15T16:48:53.329Z,19.53
2023-09-15T16:51:20.265Z,19.41
2023-09-15T16:53:47.070Z,19.28
2023-09-15T16:56:14.923Z,19.14
2023-09-15T16:58:42.586Z,19.01
2023-09-15T17:01:09.501Z,18.88
2023-09-15T17:03:36.743Z,18.74
2023-09-15T17:06:04.652Z,18.63
2023-09-15T17:08:31.570Z,18.51
2023-09-15T17:11:01.591Z,18.38
2023-09-15T17:13:28.591Z,18.25
2023-09-15T17:15:55.663Z,18.12
2023-09-15T17:18:22.593Z,17.98
2023-09-15T17:20:49.560Z,17.84
2023-09-15T17:23:16.473Z,17.71
2023-09-15T17:25:43.609Z,17.58
2023-09-15T17:28:10.415Z,17.45
2023-09-15T17:30:37.392Z,17.32
2023-09-15T17:33:04.689Z,17.19
2023-09-15T17:35:31.597Z,17.08
2023-09-15T17:37:58.575Z,16.97
2023-09-15T17:40:25.419Z,16.86
2023-09-15T17:42:53.041Z,16.75
2023-09-15T17:45:22.713Z,16.65
2023-09-15T17:47:49.774Z,16.57
2023-09-15T17:50:17.024Z,16.44
2023-09-15T17:52:44.782Z,16.30
2023-09-15T17:55:13.926Z,16.16
2023-09-15T17:57:45.364Z,15.98
2023-09-15T18:00:13.186Z,15.83
2023-09-15T18:02:40.200Z,15.70
2023-09-15T18:05:07.253Z,15.60
2023-09-15T18:07:34.134Z,15.51
2023-09-15T18:10:02.788Z,15.43
2023-09-15T18:12:30.045Z,15.35
2023-09-15T18:14:57.076Z,15.27
2023-09-15T18:17:24.010Z,15.19
2023-09-15T18:19:52.379Z,15.12
2023-09-15T18:22:19.235Z,15.06
2023-09-15T18:24:46.465Z,14.99
2023-09-15T18:27:13.331Z,14.91
2023-09-15T18:29:40.608Z,14.83
2023-09-15T18:32:08.866Z,14.75
2023-09-15T18:34:35.907Z,14.68
2023-09-15T18:37:05.602Z,14.64
2023-09-15T18:39:34.105Z,14.61
2023-09-15T18:42:01.628Z,14.58
2023-09-15T18:44:30.187Z,14.54
2023-09-15T18:46:58.439Z,14.47
2023-09-15T18:49:25.349Z,14.41
2023-09-15T18:51:52.650Z,14.33
2023-09-15T18:54:22.788Z,14.26
2023-09-15T18:56:49.755Z,14.19
2023-09-15T18:59:16.557Z,14.12
2023-09-15T19:01:43.415Z,14.07
2023-09-15T19:04:10.452Z,14.03
2023-09-15T19:06:38.581Z,14.00
2023-09-15T19:09:05.705Z,13.97
2023-09-15T19:11:32.653Z,13.95
2023-09-15T19:13:59.729Z,13.91
2023-09-15T19:16:26.686Z,13.87
2023-09-15T19:18:59.060Z,13.84
2023-09-15T19:21:26.713Z,13.82
2023-09-15T19:23:54.814Z,13.81
2023-09-15T19:26:21.727Z,13.79
2023-09-15T19:28:51.300Z,13.78
2023-09-15T19:31:19.577Z,13.76
2023-09-15T19:33:46.900Z,13.73
2023-09-15T19:36:14.501Z,13.67
2023-09-15T19:38:41.350Z,13.62
2023-09-15T19:41:10.194Z,13.57
2023-09-15T19:43:37.628Z,13.53
2023-09-15T19:46:04.605Z,13.49
2023-09-15T19:48:31.578Z,13.43
2023-09-15T19:50:59.525Z,13.38
2023-09-15T19:53:27.795Z,13.31
2023-09-15T19:55:54.716Z,13.23
2023-09-15T19:58:22.265Z,13.13
2023-09-15T20:00:50.066Z,13.01
2023-09-15T20:03:17.049Z,12.91
2023-09-15T20:05:43.930Z,12.81
2023-09-15T20:08:10.806Z,12.74
2023-09-15T20:10:37.708Z,12.68
2023-09-15T20:13:04.777Z,12.62
2023-09-15T20:15:31.871Z,12.55
2023-09-15T20:17:59.766Z,12.46
2023-09-15T20:20:26.922Z,12.38
2023-09-15T20:22:54.916Z,12.29
2023-09-15T20:25:27.616Z,12.21
2023-09-15T20:27:55.177Z,12.18
2023-09-15T20:30:22.709Z,12.18
2023-09-15T20:32:51.247Z,12.20
2023-09-15T20:35:18.376Z,12.25
2023-09-15T20:37:45.215Z,12.28
2023-09-15T20:40:12.114Z,12.30
2023-09-15T20:42:38.960Z,12.31
2023-09-15T20:45:06.403Z,12.32
2023-09-15T20:47:33.684Z,12.31
2023-09-15T20:50:00.604Z,12.30
2023-09-15T20:52:27.860Z,12.31
2023-09-15T20:54:54.882Z,12.33
2023-09-15T20:57:21.911Z,12.37
2023-09-15T20:59:49.192Z,12.41
2023-09-15T21:02:15.995Z,12.44
2023-09-15T21:04:42.886Z,12.46
2023-09-15T21:07:09.838Z,12.48
2023-09-15T21:09:36.715Z,12.48
2023-09-15T21:12:04.744Z,12.48
2023-09-15T21:14:31.863Z,12.50
2023-09-15T21:16:58.892Z,12.54
2023-09-15T21:19:26.001Z,12.58
2023-09-15T21:21:52.927Z,12.63
2023-09-15T21:24:19.766Z,12.66
2023-09-15T21:26:46.636Z,12.69
2023-09-15T21:29:13.849Z,12.70
2023-09-15T21:31:40.763Z,12.70
2023-09-15T21:34:07.836Z,12.69
2023-09-15T21:36:34.627Z,12.69
2023-09-15T21:39:01.448Z,12.70
2023-09-15T21:41:28.572Z,12.72
2023-09-15T21:43:56.412Z,12.73
2023-09-15T21:46:23.481Z,12.75
2023-09-15T21:48:50.635Z,12.74
2023-09-15T21:51:17.866Z,12.73
2023-09-15T21:53:44.680Z,12.72
2023-09-15T21:56:11.723Z,12.69
2023-09-15T21:58:38.628Z,12.67
2023-09-15T22:01:05.621Z,12.66
2023-09-15T22:03:33.388Z,12.67
2023-09-15T22:06:00.423Z,12.69
2023-09-15T22:08:27.957Z,12.72
2023-09-15T22:10:54.894Z,12.75
2023-09-15T22:13:22.170Z,12.76
2023-09-15T22:15:49.203Z,12.76
2023-09-15T22:18:17.236Z,12.74
2023-09-15T22:20:44.086Z,12.70
2023-09-15T22:23:12.621Z,12.64
2023-09-15T22:25:40.076Z,12.56
2023-09-15T22:28:07.794Z,12.45
2023-09-15T22:30:34.977Z,12.39
2023-09-15T22:33:03.733Z,12.36
2023-09-15T22:35:31.797Z,12.35
2023-09-15T22:37:59.961Z,12.28
2023-09-15T22:40:27.297Z,12.18
2023-09-15T22:42:54.452Z,12.08
2023-09-15T22:45:23.852Z,11.98
2023-09-15T22:47:58.824Z,11.88
2023-09-15T22:50:26.670Z,11.78
2023-09-15T22:52:54.232Z,11.70
2023-09-15T22:55:22.157Z,11.62
2023-09-15T22:57:49.291Z,11.52
2023-09-15T23:00:18.015Z,11.46
2023-09-15T23:02:49.458Z,11.36
2023-09-15T23:05:17.846Z,11.29
2023-09-15T23:07:44.791Z,11.22
2023-09-15T23:10:12.304Z,11.14
2023-09-15T23:12:39.439Z,11.02
2023-09-15T23:15:07.999Z,10.96
2023-09-15T23:17:35.262Z,10.87
2023-09-15T23:20:02.659Z,10.75
2023-09-15T23:22:31.600Z,10.65
2023-09-15T23:24:58.873Z,10.59
2023-09-15T23:27:29.299Z,10.56
2023-09-15T23:29:56.816Z,10.53
2023-09-15T23:32:24.346Z,10.49
2023-09-15T23:34:51.264Z,10.44
2023-09-15T23:37:19.923Z,10.39
2023-09-15T23:39:48.274Z,10.34
2023-09-15T23:42:16.250Z,10.27
2023-09-15T23:44:43.908Z,10.22
2023-09-15T23:47:12.615Z,10.16
2023-09-15T23:49:39.488Z,10.12
2023-09-15T23:52:07.187Z,10.12
2023-09-15T23:54:34.180Z,10.10
2023-09-15T23:57:01.169Z,10.09
2023-09-15T23:59:29.371Z,10.11
